Time;durP1;ratioP1;P1;durP2;ratioP2;P2;SDS_P1;SDS_P2;PMS_P1;PMS_P2;Temp;Humidity;BMP_temperature;BMP_pressure;BME280_temperature;BME280_humidity;BME280_pressure;Samples;Min_cycle;Max_cycle;Signal;HPM_P1;HPM_P2
2021/04/17 00:01:13;;;;;;;6.85;4.55;;;;;;;7.49;45.39;94752.00;2986090;39;20044;-85
2021/04/17 00:03:15;;;;;;;8.10;4.82;;;;;;;7.60;45.41;94754.47;2995208;39;20076;-86
2021/04/17 00:05:16;;;;;;;7.50;5.05;;;;;;;7.66;45.17;94745.25;2977873;40;20059;-87
2021/04/17 00:07:17;;;;;;;8.77;4.85;;;;;;;7.70;45.28;94736.19;2986972;39;20067;-84
2021/04/17 00:09:22;;;;;;;7.97;5.43;;;;;;;7.76;45.47;94744.25;2980404;39;20411;-72
2021/04/17 00:11:24;;;;;;;9.73;5.63;;;;;;;7.79;45.13;94736.16;2978551;39;20336;-70
2021/04/17 00:13:26;;;;;;;9.75;5.30;;;;;;;7.62;45.66;94730.88;2987049;39;20051;-71
2021/04/17 00:15:27;;;;;;;9.32;4.70;;;;;;;7.59;48.78;94731.94;2991134;39;20061;-72
2021/04/17 00:17:29;;;;;;;7.97;5.28;;;;;;;7.59;48.16;94735.41;2998452;39;20433;-73
2021/04/17 00:19:30;;;;;;;8.32;5.03;;;;;;;7.65;48.28;94744.44;2990513;39;20047;-85
2021/04/17 00:21:32;;;;;;;8.00;5.00;;;;;;;7.65;49.41;94736.59;2997586;39;20319;-84
2021/04/17 00:23:33;;;;;;;8.35;5.00;;;;;;;7.62;51.05;94742.13;2992842;39;20080;-85
2021/04/17 00:25:34;;;;;;;6.05;4.78;;;;;;;7.51;54.43;94737.06;2984619;39;20147;-83
2021/04/17 00:27:36;;;;;;;6.47;4.70;;;;;;;7.37;57.55;94736.50;2987589;39;20440;-84
2021/04/17 00:29:37;;;;;;;6.15;4.32;;;;;;;7.31;59.49;94736.22;2987334;39;20037;-84
2021/04/17 00:31:39;;;;;;;5.32;4.05;;;;;;;7.33;59.04;94735.13;2996539;39;20423;-85
2021/04/17 00:33:40;;;;;;;5.18;3.78;;;;;;;7.29;60.50;94744.22;2992743;39;20062;-82
2021/04/17 00:35:41;;;;;;;5.38;3.83;;;;;;;7.20;62.21;94745.00;2995591;39;20060;-84
2021/04/17 00:37:42;;;;;;;4.78;3.95;;;;;;;7.17;63.31;94745.31;2990346;39;20059;-85
2021/04/17 00:39:44;;;;;;;5.55;3.92;;;;;;;7.20;63.62;94745.00;2987265;39;20059;-82
2021/04/17 00:41:45;;;;;;;6.15;4.35;;;;;;;7.11;63.95;94746.66;2987082;39;20102;-85
2021/04/17 00:43:46;;;;;;;7.15;4.30;;;;;;;7.12;64.24;94739.66;2990322;39;20055;-84
2021/04/17 00:45:47;;;;;;;6.53;4.97;;;;;;;7.09;65.02;94739.94;2986803;39;20377;-84
2021/04/17 00:47:49;;;;;;;6.05;4.30;;;;;;;6.98;65.83;94741.72;2985203;39;20352;-72
2021/04/17 00:49:50;;;;;;;5.60;4.40;;;;;;;6.86;66.55;94744.56;2992983;39;20055;-72
2021/04/17 00:51:51;;;;;;;4.97;3.92;;;;;;;6.87;67.04;94743.63;2986296;39;20047;-70
2021/04/17 00:53:53;;;;;;;5.82;4.47;;;;;;;6.74;66.90;94730.88;2984965;39;20718;-71
2021/04/17 00:55:54;;;;;;;7.28;5.00;;;;;;;6.79;66.20;94741.69;2992189;39;20053;-73
2021/04/17 00:57:55;;;;;;;5.32;4.30;;;;;;;6.90;66.25;94733.75;2991429;39;20051;-69
2021/04/17 00:59:57;;;;;;;6.15;4.70;;;;;;;6.96;66.01;94732.41;2986635;39;20051;-71
2021/04/17 01:01:58;;;;;;;6.75;4.57;;;;;;;6.88;66.86;94720.06;2985148;39;20059;-71
2021/04/17 01:03:59;;;;;;;5.28;4.28;;;;;;;6.84;66.95;94726.50;2990724;39;20079;-72
2021/04/17 01:06:08;;;;;;;5.88;4.53;;;;;;;6.87;66.57;94723.63;2985170;39;20046;-71
2021/04/17 01:08:20;;;;;;;4.97;4.07;;;;;;;6.93;66.79;94717.06;2975284;39;20543;-72
2021/04/17 01:10:34;;;;;;;6.07;3.95;;;;;;;6.90;66.95;94712.09;2976754;39;20370;-70
2021/04/17 01:12:39;;;;;;;6.20;5.28;;;;;;;6.91;67.18;94709.38;2989646;39;20206;-71
2021/04/17 01:14:42;;;;;;;5.03;4.30;;;;;;;6.94;66.61;94709.09;2980063;39;20056;-71
2021/04/17 01:16:44;;;;;;;6.10;4.60;;;;;;;6.92;67.04;94705.78;2983261;39;20054;-71
2021/04/17 01:18:46;;;;;;;6.38;4.55;;;;;;;6.89;67.06;94711.28;2981317;39;20289;-72
2021/04/17 01:20:52;;;;;;;5.43;3.88;;;;;;;6.84;67.23;94703.06;2976582;39;20051;-72
2021/04/17 01:23:16;;;;;;;4.53;3.85;;;;;;;6.84;66.63;94697.88;2983268;39;20055;-72
2021/04/17 01:25:19;;;;;;;4.90;4.07;;;;;;;6.90;66.35;94697.28;2978627;39;20546;-70
2021/04/17 01:27:20;;;;;;;5.38;4.13;;;;;;;6.94;66.97;94703.06;2983405;39;20062;-72
2021/04/17 01:29:22;;;;;;;5.35;4.05;;;;;;;6.91;67.26;94703.34;2986633;39;20159;-72
2021/04/17 01:31:44;;;;;;;5.43;4.00;;;;;;;6.92;66.93;94708.41;2983082;39;20171;-70
2021/04/17 01:33:50;;;;;;;5.30;3.97;;;;;;;6.93;67.17;94702.25;2987906;39;20058;-73
2021/04/17 01:35:52;;;;;;;4.30;3.67;;;;;;;6.93;67.30;94704.03;2983676;39;20091;-71
2021/04/17 01:37:53;;;;;;;5.18;3.80;;;;;;;6.93;67.50;94706.63;2972612;39;20059;-72
2021/04/17 01:39:54;;;;;;;5.03;3.85;;;;;;;6.90;67.40;94706.88;2990912;39;20075;-70
2021/04/17 01:42:03;;;;;;;5.15;3.78;;;;;;;6.89;68.15;94703.47;2981625;39;20416;-71
2021/04/17 01:44:09;;;;;;;4.82;3.75;;;;;;;6.86;67.70;94706.38;2989933;39;20061;-70
2021/04/17 01:46:17;;;;;;;4.75;3.47;;;;;;;6.72;68.02;94702.34;2982900;39;20055;-70
2021/04/17 01:48:20;;;;;;;5.85;3.90;;;;;;;6.64;68.56;94701.38;2982631;39;20549;-71
2021/04/17 01:50:24;;;;;;;4.80;2.85;;;;;;;6.51;69.05;94701.63;2986614;39;20055;-71
2021/04/17 01:52:25;;;;;;;3.55;2.92;;;;;;;6.33;69.09;94691.88;2983442;39;20063;-71
2021/04/17 01:54:29;;;;;;;5.03;3.30;;;;;;;6.28;69.48;94695.81;2974585;39;20051;-72
2021/04/17 01:56:31;;;;;;;3.67;3.00;;;;;;;6.25;69.36;94696.09;2989439;39;20095;-71
2021/04/17 01:58:36;;;;;;;3.75;2.80;;;;;;;6.28;69.36;94695.81;2974992;39;20056;-70
2021/04/17 02:00:38;;;;;;;3.17;2.58;;;;;;;6.09;70.70;94688.81;2981147;39;20059;-70
2021/04/17 02:02:39;;;;;;;3.60;2.70;;;;;;;6.01;71.38;94692.06;2992781;39;20138;-71
2021/04/17 02:04:40;;;;;;;4.57;3.17;;;;;;;5.99;71.73;94691.38;2974277;39;20037;-72
2021/04/17 02:06:42;;;;;;;3.58;2.72;;;;;;;5.89;71.90;94686.09;2991888;39;20055;-73
2021/04/17 02:08:43;;;;;;;4.13;2.90;;;;;;;5.90;72.45;94694.72;2990529;39;20047;-72
2021/04/17 02:10:45;;;;;;;3.95;3.03;;;;;;;6.01;72.33;94686.84;2982707;39;20095;-71
2021/04/17 02:12:47;;;;;;;6.05;3.45;;;;;;;6.01;72.48;94696.44;2975122;40;20072;-72
2021/04/17 02:14:48;;;;;;;4.38;3.55;;;;;;;6.03;72.82;94697.13;2992634;39;20051;-71
2021/04/17 02:17:03;;;;;;;4.63;3.50;;;;;;;6.05;72.27;94696.03;2991830;39;20336;-71
2021/04/17 02:19:08;;;;;;;4.50;3.33;;;;;;;5.94;72.87;94698.72;2978445;39;20344;-72
2021/04/17 02:21:10;;;;;;;4.20;3.20;;;;;;;5.91;72.80;94696.34;2979761;39;20079;-71
2021/04/17 02:23:12;;;;;;;4.03;3.25;;;;;;;5.96;73.50;94691.63;2979084;39;20084;-71
2021/04/17 02:25:13;;;;;;;5.05;3.28;;;;;;;6.03;72.56;94690.16;2990398;39;20054;-72
2021/04/17 02:27:15;;;;;;;3.90;2.90;;;;;;;6.11;72.92;94692.91;2974986;40;20058;-71
2021/04/17 02:29:17;;;;;;;3.80;3.10;;;;;;;6.19;72.35;94699.22;2988724;39;20068;-72
2021/04/17 02:31:18;;;;;;;4.47;3.50;;;;;;;6.16;73.15;94700.31;2999424;39;20200;-70
2021/04/17 02:33:20;;;;;;;3.95;3.28;;;;;;;6.12;72.74;94697.16;2992917;39;20066;-71
2021/04/17 02:35:21;;;;;;;3.75;3.03;;;;;;;5.95;72.68;94692.56;2992393;39;20068;-72
2021/04/17 02:37:23;;;;;;;3.20;2.53;;;;;;;5.84;73.82;94687.44;2976638;39;20063;-71
2021/04/17 02:39:24;;;;;;;6.05;3.03;;;;;;;5.71;74.82;94690.25;2981718;39;20314;-73
2021/04/17 02:41:25;;;;;;;3.80;2.53;;;;;;;5.65;74.97;94680.38;2991937;39;20093;-72
2021/04/17 02:43:26;;;;;;;3.13;2.53;;;;;;;5.52;74.92;94690.97;2988296;39;20043;-71
2021/04/17 02:45:28;;;;;;;3.72;3.03;;;;;;;5.61;75.32;94690.19;2985428;39;20337;-72
2021/04/17 02:47:29;;;;;;;3.58;2.45;;;;;;;5.70;74.69;94696.38;2983563;39;20422;-73
2021/04/17 02:49:31;;;;;;;3.60;3.13;;;;;;;5.77;75.03;94686.31;2988701;39;20066;-70
2021/04/17 02:51:32;;;;;;;3.97;3.20;;;;;;;5.88;73.75;94684.44;2974785;39;20088;-71
2021/04/17 02:53:34;;;;;;;5.10;3.50;;;;;;;5.99;74.01;94693.97;2993440;39;20055;-70
2021/04/17 02:55:35;;;;;;;3.97;3.38;;;;;;;6.00;74.07;94687.81;2974414;39;20090;-71
2021/04/17 02:57:36;;;;;;;4.55;3.20;;;;;;;5.83;74.07;94685.78;2982939;39;20076;-72
2021/04/17 02:59:38;;;;;;;4.47;3.20;;;;;;;5.75;74.12;94684.66;2984301;39;20429;-71
2021/04/17 03:01:39;;;;;;;4.50;3.72;;;;;;;5.83;74.88;94686.63;2990641;39;20059;-71
2021/04/17 03:03:40;;;;;;;5.03;4.05;;;;;;;5.74;74.43;94683.03;2979660;39;20068;-85
2021/04/17 03:05:42;;;;;;;6.43;3.47;;;;;;;5.74;74.70;94693.44;2987467;39;20075;-83
2021/04/17 03:07:43;;;;;;;5.35;4.00;;;;;;;5.70;75.34;94686.84;2985782;39;20048;-85
2021/04/17 03:09:44;;;;;;;4.78;3.75;;;;;;;5.66;75.33;94680.25;2977167;39;20059;-83
2021/04/17 03:11:46;;;;;;;5.47;4.18;;;;;;;5.64;75.49;94682.16;2990984;39;20062;-71
2021/04/17 03:13:47;;;;;;;7.38;4.50;;;;;;;5.70;75.65;94681.66;2992636;39;20075;-71
2021/04/17 03:15:48;;;;;;;4.80;3.70;;;;;;;5.50;75.94;94682.47;2972645;39;20067;-70
2021/04/17 03:17:50;;;;;;;6.13;4.47;;;;;;;5.47;76.32;94675.78;2968940;39;20498;-70
2021/04/17 03:19:51;;;;;;;4.88;3.95;;;;;;;5.48;76.47;94671.41;2988593;39;20073;-84
2021/04/17 03:21:53;;;;;;;6.35;4.65;;;;;;;5.42;76.57;94671.91;2981924;39;20055;-84
2021/04/17 03:23:55;;;;;;;5.47;3.83;;;;;;;5.47;77.03;94674.97;2995805;39;20081;-84
2021/04/17 03:25:56;;;;;;;6.25;4.13;;;;;;;5.44;76.50;94672.59;2977853;39;20086;-83
2021/04/17 03:27:57;;;;;;;6.13;4.50;;;;;;;5.45;76.73;94674.25;2995702;39;20053;-83
2021/04/17 03:29:59;;;;;;;4.90;3.78;;;;;;;5.40;76.43;94677.25;2986916;39;20059;-84
2021/04/17 03:32:00;;;;;;;6.35;3.88;;;;;;;5.41;76.66;94678.88;3007515;39;20119;-83
2021/04/17 03:34:02;;;;;;;5.05;3.90;;;;;;;5.41;76.69;94681.47;3007439;39;20051;-85
2021/04/17 03:36:05;;;;;;;5.47;4.25;;;;;;;5.42;76.89;94674.50;2979244;40;20459;-84
2021/04/17 03:38:06;;;;;;;6.10;4.20;;;;;;;5.52;76.64;94683.19;2997558;39;20040;-84
2021/04/17 03:40:09;;;;;;;6.28;4.53;;;;;;;5.52;76.02;94681.41;3004086;39;20075;-82
2021/04/17 03:42:11;;;;;;;6.03;3.80;;;;;;;5.49;75.68;94678.25;3005246;39;20083;-84
2021/04/17 03:44:12;;;;;;;5.68;4.20;;;;;;;5.32;76.40;94680.47;3004109;39;20039;-84
2021/04/17 03:46:16;;;;;;;6.25;4.00;;;;;;;5.40;76.08;94684.19;2996407;39;20047;-87
2021/04/17 03:48:17;;;;;;;7.55;4.25;;;;;;;5.45;76.18;94682.06;3004173;39;20039;-83
2021/04/17 03:50:19;;;;;;;6.05;4.13;;;;;;;5.46;76.13;94683.69;2998413;39;20055;-84
2021/04/17 03:52:20;;;;;;;4.97;4.07;;;;;;;5.38;76.45;94686.09;2983768;39;20052;-84
2021/04/17 03:54:22;;;;;;;5.88;4.30;;;;;;;5.22;77.48;94684.78;2989183;39;20066;-84
2021/04/17 03:56:23;;;;;;;5.78;4.25;;;;;;;5.15;77.44;94691.44;2987944;39;20125;-84
2021/04/17 03:58:24;;;;;;;6.07;4.30;;;;;;;4.99;78.09;94685.84;2998071;39;20034;-84
2021/04/17 04:00:26;;;;;;;8.15;4.70;;;;;;;4.90;78.58;94696.06;2990640;39;20074;-84
2021/04/17 04:02:27;;;;;;;7.22;4.65;;;;;;;4.87;78.98;94695.47;2995531;39;20058;-85
2021/04/17 04:04:28;;;;;;;6.38;4.85;;;;;;;4.90;78.64;94698.66;2991351;39;20062;-82
2021/04/17 04:06:29;;;;;;;6.38;4.47;;;;;;;4.93;78.21;94700.97;3000404;39;20054;-85
2021/04/17 04:08:31;;;;;;;7.65;5.38;;;;;;;4.83;78.97;94705.25;2990348;39;20054;-84
2021/04/17 04:10:33;;;;;;;6.30;5.00;;;;;;;4.90;78.36;94698.66;2993641;39;20070;-84
2021/04/17 04:12:34;;;;;;;6.07;5.35;;;;;;;4.98;78.71;94697.19;2981479;39;20046;-84
2021/04/17 04:14:35;;;;;;;6.82;5.22;;;;;;;4.99;78.96;94696.22;2994771;39;20274;-83
2021/04/17 04:16:37;;;;;;;6.10;5.05;;;;;;;5.05;78.42;94704.34;2995363;39;20059;-85
2021/04/17 04:18:38;;;;;;;6.15;4.88;;;;;;;5.07;78.91;94696.44;3004270;39;20051;-84
2021/04/17 04:20:39;;;;;;;8.00;5.32;;;;;;;5.02;78.66;94701.19;3001560;39;20079;-84
2021/04/17 04:22:40;;;;;;;9.65;5.32;;;;;;;5.03;79.37;94688.06;3002030;39;20080;-84
2021/04/17 04:24:42;;;;;;;7.30;5.63;;;;;;;5.11;78.59;94692.63;3007436;39;20055;-84
2021/04/17 04:26:43;;;;;;;8.30;5.85;;;;;;;5.19;78.50;94687.63;3001791;39;20226;-84
2021/04/17 04:28:45;;;;;;;6.07;5.15;;;;;;;5.21;78.56;94688.34;2988325;39;20044;-85
2021/04/17 04:30:46;;;;;;;6.82;5.53;;;;;;;5.12;78.65;94682.13;2997642;39;20035;-84
2021/04/17 04:32:47;;;;;;;7.55;5.95;;;;;;;5.12;79.18;94679.53;2998486;39;20054;-84
2021/04/17 04:34:49;;;;;;;7.60;5.43;;;;;;;5.11;78.68;94674.47;3001724;39;20031;-84
2021/04/17 04:36:50;;;;;;;8.23;5.53;;;;;;;5.11;78.67;94672.69;2991475;39;20083;-83
2021/04/17 04:38:51;;;;;;;7.82;5.30;;;;;;;5.16;78.28;94671.47;3004736;39;20027;-84
2021/04/17 04:40:52;;;;;;;6.90;5.32;;;;;;;5.26;77.77;94669.78;2997465;39;20332;-86
2021/04/17 04:42:53;;;;;;;6.00;4.70;;;;;;;5.22;77.50;94673.56;2978769;40;20064;-84
2021/04/17 04:44:55;;;;;;;6.72;5.10;;;;;;;5.26;77.56;94673.19;2989839;39;20066;-84
2021/04/17 04:46:56;;;;;;;10.18;5.20;;;;;;;5.39;77.13;94664.38;2990892;39;20048;-83
2021/04/17 04:48:58;;;;;;;14.48;8.45;;;;;;;5.44;77.59;94659.59;2997601;39;20038;-85
2021/04/17 04:50:59;;;;;;;8.68;6.50;;;;;;;5.37;77.06;94661.09;2996880;39;20051;-86
2021/04/17 04:53:01;;;;;;;11.43;6.13;;;;;;;5.41;76.85;94659.88;2986576;39;20111;-84
2021/04/17 04:55:03;;;;;;;8.38;5.57;;;;;;;5.55;76.46;94659.56;2989802;39;20058;-85
2021/04/17 04:57:05;;;;;;;6.30;4.78;;;;;;;5.60;75.56;94661.75;2991568;39;20051;-85
2021/04/17 04:59:06;;;;;;;6.07;4.40;;;;;;;5.66;76.32;94666.44;2986323;39;20043;-72
2021/04/17 05:01:07;;;;;;;6.38;4.43;;;;;;;5.68;75.27;94662.75;2991786;39;20403;-71
2021/04/17 05:03:09;;;;;;;6.07;4.53;;;;;;;5.64;76.25;94661.38;2982410;39;20487;-71
2021/04/17 05:05:11;;;;;;;5.82;4.40;;;;;;;5.62;76.05;94657.25;2980528;39;20356;-72
2021/04/17 05:07:12;;;;;;;6.13;4.35;;;;;;;5.65;76.10;94655.19;2990509;39;20050;-72
2021/04/17 05:09:13;;;;;;;18.00;11.43;;;;;;;5.57;76.36;94662.00;2991348;39;20061;-72
2021/04/17 05:11:14;;;;;;;7.78;5.43;;;;;;;5.55;76.49;94656.97;2991507;39;20055;-71
2021/04/17 05:13:16;;;;;;;6.28;5.00;;;;;;;5.60;76.29;94662.56;2988181;39;20062;-71
2021/04/17 05:15:17;;;;;;;6.47;5.07;;;;;;;5.56;76.62;94663.78;2990202;39;20055;-73
2021/04/17 05:17:18;;;;;;;9.07;5.90;;;;;;;5.49;76.33;94660.88;2980666;39;20059;-71
2021/04/17 05:19:20;;;;;;;6.93;5.05;;;;;;;5.45;76.57;94669.88;2987652;39;20147;-72
2021/04/17 05:21:21;;;;;;;7.35;5.82;;;;;;;5.47;76.28;94660.19;2992566;39;20051;-71
2021/04/17 05:23:32;;;;;;;8.68;6.30;;;;;;;5.54;75.89;94660.50;2999694;39;20182;-84
2021/04/17 05:25:33;;;;;;;8.43;6.70;;;;;;;5.59;76.03;94665.28;2996134;39;20085;-73
2021/04/17 05:27:34;;;;;;;9.07;6.28;;;;;;;5.64;76.59;94660.56;2993069;39;20059;-72
2021/04/17 05:29:36;;;;;;;11.25;7.82;;;;;;;5.63;75.45;94659.69;2999260;39;20070;-72
2021/04/17 05:31:37;;;;;;;10.07;7.60;;;;;;;5.62;75.74;94662.47;2993856;39;20423;-71
2021/04/17 05:33:38;;;;;;;9.95;7.47;;;;;;;5.62;75.76;94660.66;2982289;39;20060;-73
2021/04/17 05:35:40;;;;;;;9.68;7.50;;;;;;;5.65;76.01;94668.19;2977946;39;20092;-72
2021/04/17 05:37:41;;;;;;;10.30;8.27;;;;;;;5.73;75.29;94654.56;2989165;39;20053;-73
2021/04/17 05:39:42;;;;;;;11.57;8.60;;;;;;;5.69;75.34;94659.19;2991950;39;20079;-71
2021/04/17 05:41:43;;;;;;;14.98;9.63;;;;;;;5.75;75.60;94663.88;2987224;39;20048;-71
2021/04/17 05:43:45;;;;;;;24.77;15.55;;;;;;;5.83;75.31;94664.97;3001124;39;20296;-84
2021/04/17 05:45:46;;;;;;;13.15;10.40;;;;;;;5.88;75.22;94670.63;3004206;39;20051;-87
2021/04/17 05:47:47;;;;;;;12.18;8.27;;;;;;;5.93;74.56;94665.84;2997338;39;20058;-84
2021/04/17 05:49:49;;;;;;;11.32;9.02;;;;;;;5.98;74.42;94668.94;3002209;39;20728;-84
2021/04/17 05:51:50;;;;;;;11.77;8.75;;;;;;;5.90;74.59;94666.94;3005135;39;20379;-84
2021/04/17 05:53:51;;;;;;;10.50;8.40;;;;;;;5.88;74.97;94673.22;2988409;39;20092;-85
2021/04/17 05:55:53;;;;;;;10.27;8.27;;;;;;;5.77;74.67;94670.72;2997202;39;20091;-85
2021/04/17 05:57:54;;;;;;;11.65;8.80;;;;;;;5.77;75.13;94662.94;2997341;39;20062;-85
2021/04/17 05:59:55;;;;;;;12.68;9.07;;;;;;;5.78;75.26;94667.97;3005659;39;20058;-86
2021/04/17 06:01:56;;;;;;;11.10;8.98;;;;;;;5.86;74.61;94660.34;3005603;39;20094;-86
2021/04/17 06:03:58;;;;;;;13.25;9.70;;;;;;;5.92;75.27;94665.03;3005044;39;20059;-85
2021/04/17 06:05:59;;;;;;;10.48;8.38;;;;;;;6.07;74.24;94680.31;2987865;39;20333;-86
2021/04/17 06:08:00;;;;;;;10.70;8.23;;;;;;;6.07;74.63;94678.53;2988275;39;20087;-85
2021/04/17 06:10:04;;;;;;;11.55;8.45;;;;;;;6.11;74.49;94673.91;2999899;39;20055;-84
2021/04/17 06:12:05;;;;;;;13.45;9.73;;;;;;;6.15;74.15;94670.06;2992376;39;20102;-86
2021/04/17 06:14:07;;;;;;;12.35;9.05;;;;;;;6.18;73.57;94674.19;2991469;39;20339;-86
2021/04/17 06:16:09;;;;;;;13.20;8.50;;;;;;;6.20;73.37;94667.06;2997013;39;20051;-87
2021/04/17 06:18:10;;;;;;;14.77;9.68;;;;;;;6.13;73.22;94670.22;2987505;39;20039;-86
2021/04/17 06:20:12;;;;;;;13.18;9.32;;;;;;;6.14;73.92;94664.03;2991183;39;20116;-86
2021/04/17 06:22:14;;;;;;;12.80;8.63;;;;;;;6.10;73.41;94667.84;2999305;39;20104;-85
2021/04/17 06:24:15;;;;;;;13.60;9.32;;;;;;;6.13;73.94;94656.34;2997697;39;20348;-84
2021/04/17 06:26:16;;;;;;;14.35;9.38;;;;;;;6.14;74.21;94664.03;2992543;39;20095;-86
2021/04/17 06:28:18;;;;;;;10.60;8.90;;;;;;;6.17;73.50;94659.53;2978889;39;20032;-85
2021/04/17 06:30:20;;;;;;;13.52;9.57;;;;;;;6.26;73.33;94653.50;2996743;39;20058;-86
2021/04/17 06:32:22;;;;;;;12.38;9.48;;;;;;;6.12;73.23;94650.34;2996690;39;20054;-86
2021/04/17 06:34:24;;;;;;;15.07;9.68;;;;;;;6.14;73.10;94650.22;2988097;39;20032;-87
2021/04/17 06:36:26;;;;;;;13.18;9.20;;;;;;;6.05;73.25;94646.63;2987912;39;20099;-84
2021/04/17 06:38:27;;;;;;;14.57;9.68;;;;;;;5.85;73.59;94653.53;3003575;39;20031;-86
2021/04/17 06:40:29;;;;;;;12.95;9.70;;;;;;;5.85;73.67;94652.69;2989952;39;20102;-89
2021/04/17 06:42:31;;;;;;;14.02;10.20;;;;;;;5.88;73.76;94647.22;2997191;39;20369;-90
2021/04/17 06:44:33;;;;;;;13.85;10.75;;;;;;;5.77;74.27;94649.94;2986156;39;20421;-84
2021/04/17 06:46:37;;;;;;;14.68;11.00;;;;;;;5.73;74.70;94651.97;2989304;39;20043;-84
2021/04/17 06:48:40;;;;;;;17.08;10.82;;;;;;;5.76;74.59;94643.88;2990771;39;20055;-85
2021/04/17 06:50:42;;;;;;;14.80;10.48;;;;;;;5.84;74.67;94648.44;2994204;39;20030;-87
2021/04/17 06:52:43;;;;;;;13.98;10.65;;;;;;;5.87;74.33;94645.56;2994169;39;20026;-83
2021/04/17 06:54:46;;;;;;;14.60;9.93;;;;;;;5.93;74.40;94642.44;2978530;40;20042;-87
2021/04/17 06:56:49;;;;;;;13.38;10.35;;;;;;;5.89;74.97;94639.31;2994020;39;20028;-86
2021/04/17 06:58:51;;;;;;;15.20;10.02;;;;;;;5.97;73.96;94636.06;2987344;39;20032;-87
2021/04/17 07:00:52;;;;;;;16.60;11.32;;;;;;;6.03;74.34;94637.31;2978558;39;20071;-73
2021/04/17 07:02:54;;;;;;;15.90;11.52;;;;;;;5.95;74.17;94635.38;2992139;39;20046;-72
2021/04/17 07:04:55;;;;;;;17.13;12.02;;;;;;;5.93;73.93;94634.66;2992173;39;20051;-72
2021/04/17 07:06:57;;;;;;;13.75;11.20;;;;;;;5.89;74.98;94643.66;2982652;39;20133;-72
2021/04/17 07:08:58;;;;;;;14.25;10.10;;;;;;;5.91;74.55;94636.56;2991976;39;20422;-72
2021/04/17 07:10:59;;;;;;;14.00;10.38;;;;;;;5.93;74.58;94632.06;2991758;39;20383;-72
2021/04/17 07:13:15;;;;;;;12.98;9.88;;;;;;;5.82;74.29;94630.38;2979622;39;20067;-74
2021/04/17 07:15:16;;;;;;;15.55;10.57;;;;;;;5.74;74.67;94636.25;2979689;39;20055;-73
2021/04/17 07:17:18;;;;;;;15.70;10.93;;;;;;;5.68;75.32;94635.94;2983276;39;20099;-73
2021/04/17 07:19:21;;;;;;;14.90;10.85;;;;;;;5.80;75.52;94642.69;2982998;39;20362;-72
2021/04/17 07:21:26;;;;;;;16.40;11.23;;;;;;;5.95;75.06;94635.38;2983426;39;20040;-73
2021/04/17 07:23:30;;;;;;;18.95;12.05;;;;;;;6.08;74.79;94643.75;2982946;39;20330;-72
2021/04/17 07:25:31;;;;;;;16.70;12.05;;;;;;;6.13;74.32;94631.19;2989596;39;20059;-72
2021/04/17 07:27:41;;;;;;;15.90;11.63;;;;;;;6.12;74.01;94637.34;2983035;39;20067;-73
2021/04/17 07:29:44;;;;;;;17.02;11.90;;;;;;;6.00;74.32;94635.81;2992780;39;20083;-71
2021/04/17 07:31:54;;;;;;;15.30;10.47;;;;;;;5.93;74.54;94635.47;2984856;39;20092;-72
2021/04/17 07:33:57;;;;;;;14.55;11.27;;;;;;;5.91;74.49;94636.56;2980463;39;20096;-73
2021/04/17 07:36:02;;;;;;;16.90;11.95;;;;;;;5.98;74.86;94648.13;2978681;39;20070;-72
2021/04/17 07:38:07;;;;;;;15.70;10.77;;;;;;;5.97;74.21;94636.06;2977376;39;20092;-72
2021/04/17 07:40:16;;;;;;;16.55;11.55;;;;;;;6.02;74.35;94628.69;2990578;39;20043;-72
2021/04/17 07:42:17;;;;;;;16.98;11.48;;;;;;;5.99;73.93;94631.56;2981479;39;20140;-73
2021/04/17 07:44:29;;;;;;;15.82;11.35;;;;;;;5.89;74.19;94634.13;2987815;39;20055;-71
2021/04/17 07:46:42;;;;;;;15.38;11.27;;;;;;;5.98;74.24;94645.53;2989927;39;20218;-70
2021/04/17 07:48:43;;;;;;;15.37;11.93;;;;;;;6.00;75.34;94642.78;2981879;39;20075;-70
2021/04/17 07:50:46;;;;;;;13.52;10.45;;;;;;;5.99;74.51;94638.53;2992403;39;20126;-73
2021/04/17 07:52:48;;;;;;;17.40;10.65;;;;;;;5.97;74.96;94635.25;2992211;39;20150;-71
2021/04/17 07:54:52;;;;;;;13.45;10.60;;;;;;;5.93;74.64;94638.06;2982442;39;20059;-73
2021/04/17 07:56:54;;;;;;;19.83;11.02;;;;;;;5.92;74.73;94631.22;2992115;39;20047;-71
2021/04/17 07:59:04;;;;;;;19.65;12.43;;;;;;;5.98;74.98;94642.09;2982702;39;20382;-71
2021/04/17 08:01:06;;;;;;;14.05;10.70;;;;;;;6.00;74.99;94629.78;2992194;39;20352;-73
2021/04/17 08:03:27;;;;;;;15.25;10.15;;;;;;;6.06;74.69;94626.66;2991554;39;20316;-70
2021/04/17 08:05:28;;;;;;;15.35;10.95;;;;;;;6.04;74.97;94620.75;2990671;39;20047;-72
2021/04/17 08:07:29;;;;;;;14.80;10.57;;;;;;;6.14;74.48;94617.22;2974223;40;20097;-70
2021/04/17 08:09:31;;;;;;;16.45;11.15;;;;;;;6.24;74.01;94624.19;2976213;39;20166;-72
2021/04/17 08:11:33;;;;;;;16.30;10.75;;;;;;;6.33;73.87;94618.22;2973900;39;20044;-75
2021/04/17 08:13:40;;;;;;;15.63;10.88;;;;;;;6.26;73.69;94604.09;2992114;39;20062;-72
2021/04/17 08:15:41;;;;;;;13.68;10.23;;;;;;;6.19;74.59;94605.59;2981998;39;20045;-72
2021/04/17 08:17:44;;;;;;;14.30;10.68;;;;;;;6.26;74.50;94610.13;2982329;39;20368;-71
2021/04/17 08:19:46;;;;;;;16.42;10.85;;;;;;;6.39;73.59;94609.03;2992313;39;20130;-71
2021/04/17 08:21:48;;;;;;;17.20;11.40;;;;;;;6.47;73.55;94603.97;2990435;39;20073;-69
2021/04/17 08:23:51;;;;;;;19.23;10.75;;;;;;;6.54;73.31;94597.28;2985424;39;20059;-72
2021/04/17 08:25:53;;;;;;;18.05;10.10;;;;;;;6.59;72.76;94604.69;2995295;39;20073;-86
2021/04/17 08:27:55;;;;;;;13.35;10.45;;;;;;;6.58;72.86;94606.44;2977442;39;20090;-85
2021/04/17 08:29:58;;;;;;;14.63;9.90;;;;;;;6.67;72.76;94597.81;2986909;39;20401;-87
2021/04/17 08:31:59;;;;;;;15.18;9.57;;;;;;;6.72;73.14;94594.81;2986691;39;20084;-87
2021/04/17 08:34:10;;;;;;;13.63;9.73;;;;;;;6.76;72.56;94596.19;2986208;39;20079;-87
2021/04/17 08:36:30;;;;;;;14.48;9.93;;;;;;;6.73;72.55;94591.22;2995771;39;20063;-87
2021/04/17 08:38:35;;;;;;;14.93;9.07;;;;;;;6.72;72.33;94589.59;3003569;39;20057;-86
2021/04/17 08:40:38;;;;;;;12.60;9.32;;;;;;;6.77;73.22;94582.19;2975646;39;20052;-82
2021/04/17 08:42:46;;;;;;;14.23;9.25;;;;;;;6.85;72.55;94589.31;2988810;39;20096;-85
2021/04/17 08:44:47;;;;;;;13.88;9.52;;;;;;;6.91;72.46;94584.38;2998390;39;20047;-88
2021/04/17 08:46:48;;;;;;;15.02;10.07;;;;;;;6.96;72.57;94586.53;2995373;39;20042;-84
2021/04/17 08:48:54;;;;;;;17.05;10.02;;;;;;;6.82;72.72;94585.22;2974184;39;20112;-87
2021/04/17 08:51:21;;;;;;;13.05;9.88;;;;;;;6.75;72.44;94578.91;2980587;39;20051;-86
2021/04/17 08:53:22;;;;;;;13.57;8.63;;;;;;;6.78;72.95;94578.63;2995475;39;20043;-88
2021/04/17 08:55:27;;;;;;;13.18;8.95;;;;;;;6.78;72.63;94577.81;2987290;39;20066;-84
2021/04/17 08:57:28;;;;;;;12.32;8.82;;;;;;;6.82;73.28;94574.78;2992821;39;20397;-86
2021/04/17 08:59:35;;;;;;;11.68;9.05;;;;;;;6.92;72.45;94572.97;2987719;39;20035;-87
2021/04/17 09:01:41;;;;;;;11.50;8.00;;;;;;;6.88;72.76;94569.03;2984246;39;20036;-87
2021/04/17 09:03:46;;;;;;;13.98;8.25;;;;;;;6.86;73.17;94567.50;2987231;39;20054;-86
2021/04/17 09:05:47;;;;;;;10.48;7.50;;;;;;;6.75;73.18;94563.28;2979057;39;20047;-84
2021/04/17 09:08:13;;;;;;;9.95;7.70;;;;;;;6.75;73.17;94558.91;2996772;39;20425;-86
2021/04/17 09:10:27;;;;;;;9.63;7.63;;;;;;;6.70;73.46;94562.88;2993885;39;20038;-86
2021/04/17 09:12:29;;;;;;;8.50;7.10;;;;;;;6.70;73.30;94555.88;2996694;39;20064;-86
2021/04/17 09:14:33;;;;;;;11.18;7.35;;;;;;;6.68;73.22;94552.59;2990742;39;20410;-89
2021/04/17 09:16:39;;;;;;;10.10;7.50;;;;;;;6.66;72.96;94553.69;3000572;39;20390;-88
2021/04/17 09:18:42;;;;;;;10.48;7.60;;;;;;;6.73;72.75;94557.38;2997573;39;20053;-84
2021/04/17 09:20:44;;;;;;;10.00;7.97;;;;;;;6.86;72.80;94552.72;2984292;39;20424;-85
2021/04/17 09:22:46;;;;;;;10.52;7.40;;;;;;;6.78;72.59;94550.00;2979941;40;20059;-86
2021/04/17 09:24:47;;;;;;;9.80;6.93;;;;;;;6.84;72.76;94544.22;2979866;40;20060;-85
2021/04/17 09:26:49;;;;;;;8.85;7.07;;;;;;;6.80;72.99;94545.47;2987690;39;20288;-85
2021/04/17 09:28:50;;;;;;;8.45;6.70;;;;;;;6.87;71.98;94550.94;2987115;39;20043;-88
2021/04/17 09:30:52;;;;;;;9.07;6.45;;;;;;;6.70;73.06;94540.25;2997075;39;20051;-85
2021/04/17 09:32:55;;;;;;;8.25;6.30;;;;;;;6.57;73.80;94539.75;2996676;39;20055;-88
2021/04/17 09:34:57;;;;;;;10.02;6.93;;;;;;;6.60;73.93;94538.63;2996671;39;20057;-86
2021/04/17 09:37:08;;;;;;;9.13;6.88;;;;;;;6.71;73.88;94535.88;2980075;39;20052;-86
2021/04/17 09:39:27;;;;;;;9.60;6.45;;;;;;;6.65;73.37;94532.06;2987548;39;20039;-87
2021/04/17 09:41:50;;;;;;;9.70;7.00;;;;;;;6.67;74.25;94524.94;2998705;39;20059;-86